createdAt,value
2023-01-29T00:17:56.339Z,0.76
2023-01-29T00:20:25.559Z,0.76
2023-01-29T00:22:53.957Z,0.47
2023-01-29T00:25:21.788Z,0.49
2023-01-29T00:27:49.973Z,0.43
2023-01-29T00:30:20.110Z,0.45
2023-01-29T00:32:48.840Z,0.48
2023-01-29T00:48:49.003Z,0.99
2023-01-29T00:51:17.631Z,0.99
2023-01-29T00:53:45.623Z,0.28
2023-01-29T00:56:13.566Z,0.50
2023-01-29T00:58:42.013Z,0.32
2023-01-29T01:01:10.083Z,0.45
2023-01-29T01:03:42.352Z,0.38
2023-01-29T01:24:38.332Z,1.02
2023-01-29T01:27:07.309Z,1.02
2023-01-29T01:29:35.229Z,0.38
2023-01-29T01:32:03.299Z,0.41
2023-01-29T01:34:31.680Z,0.38
2023-01-29T01:36:59.543Z,0.53
2023-01-29T01:39:27.407Z,0.19
2023-01-29T02:00:29.108Z,0.86
2023-01-29T02:03:17.152Z,0.86
2023-01-29T02:06:03.865Z,0.21
2023-01-29T02:09:13.178Z,0.27
2023-01-29T02:11:41.759Z,0.38
2023-01-29T02:14:10.165Z,0.36
2023-01-29T02:16:38.474Z,0.38
2023-01-29T02:35:30.152Z,0.79
2023-01-29T02:38:06.628Z,0.79
2023-01-29T02:41:03.467Z,0.20
2023-01-29T02:43:43.930Z,0.21
2023-01-29T02:46:29.986Z,0.32
2023-01-29T02:49:08.408Z,0.25
2023-01-29T03:11:15.377Z,0.69
2023-01-29T03:14:05.899Z,0.69
2023-01-29T03:16:49.039Z,0.13
2023-01-29T03:19:28.835Z,0.14
2023-01-29T03:22:00.359Z,0.13
2023-01-29T03:25:00.598Z,0.07
2023-01-29T03:47:36.913Z,0.39
2023-01-29T03:50:45.481Z,0.39
2023-01-29T03:53:41.475Z,-0.27
2023-01-29T03:56:24.940Z,-0.33
2023-01-29T03:59:04.918Z,-0.37
2023-01-29T04:01:54.807Z,-0.33
2023-01-29T04:04:34.447Z,-0.34
2023-01-29T04:20:18.891Z,0.82
2023-01-29T04:22:50.794Z,0.82
2023-01-29T04:25:31.204Z,0.04
2023-01-29T04:28:02.505Z,-0.04
2023-01-29T04:30:33.736Z,0.12
2023-01-29T04:33:27.639Z,-0.06
2023-01-29T04:36:37.248Z,-0.02
2023-01-29T04:56:10.821Z,0.85
2023-01-29T04:58:47.662Z,0.85
2023-01-29T05:01:19.548Z,-0.02
2023-01-29T05:03:52.132Z,0.17
2023-01-29T05:06:21.424Z,0.07
2023-01-29T05:08:51.359Z,0.13
2023-01-29T05:11:20.623Z,0.03
2023-01-29T05:35:12.212Z,1.03
2023-01-29T05:37:40.831Z,1.03
2023-01-29T05:40:25.000Z,0.16
2023-01-29T05:42:53.272Z,0.13
2023-01-29T05:45:21.405Z,0.20
2023-01-29T05:47:49.328Z,0.13
2023-01-29T05:50:18.623Z,0.28
2023-01-29T06:10:32.465Z,0.77
2023-01-29T06:13:01.437Z,0.77
2023-01-29T06:15:29.292Z,0.09
2023-01-29T06:17:57.667Z,0.11
2023-01-29T06:20:26.907Z,0.04
2023-01-29T06:22:54.792Z,-0.02
2023-01-29T06:25:22.648Z,-0.22
2023-01-29T06:48:03.979Z,0.77
2023-01-29T06:50:32.748Z,0.77
2023-01-29T06:53:00.650Z,0.04
2023-01-29T06:55:28.478Z,0.11
2023-01-29T06:57:56.968Z,0.11
2023-01-29T07:00:24.942Z,0.24
2023-01-29T07:02:53.018Z,0.26
2023-01-29T07:05:21.410Z,0.26
2023-01-29T07:28:26.251Z,1.17
2023-01-29T07:30:59.374Z,1.17
2023-01-29T07:33:27.404Z,0.67
2023-01-29T07:35:55.778Z,0.73
2023-01-29T07:38:24.126Z,0.75
2023-01-29T07:40:52.917Z,0.69
2023-01-29T07:43:21.280Z,0.57
2023-01-29T08:06:17.653Z,1.64
2023-01-29T08:08:46.252Z,1.64
2023-01-29T08:11:15.439Z,0.87
2023-01-29T08:13:43.415Z,0.92
2023-01-29T08:16:11.779Z,1.09
2023-01-29T08:18:42.538Z,1.13
2023-01-29T08:21:12.246Z,1.10
2023-01-29T08:23:41.335Z,1.19
2023-01-29T08:44:05.851Z,1.90
2023-01-29T08:46:34.409Z,1.90
2023-01-29T08:49:02.254Z,0.99
2023-01-29T08:51:30.246Z,1.35
2023-01-29T08:53:59.529Z,1.29
2023-01-29T08:56:27.542Z,1.36
2023-01-29T08:58:55.875Z,1.40
2023-01-29T09:01:24.468Z,1.00
2023-01-29T09:16:42.243Z,1.58
2023-01-29T09:19:11.014Z,1.58
2023-01-29T09:21:39.031Z,1.03
2023-01-29T09:24:06.997Z,1.09
2023-01-29T09:26:35.964Z,1.18
2023-01-29T09:29:04.316Z,1.07
2023-01-29T09:31:32.519Z,1.05
2023-01-29T09:52:35.431Z,1.38
2023-01-29T09:55:15.228Z,1.38
2023-01-29T09:57:50.602Z,0.80
2023-01-29T10:00:25.327Z,0.83
2023-01-29T10:03:09.449Z,0.76
2023-01-29T10:06:00.567Z,0.58
2023-01-29T10:31:30.132Z,1.27
2023-01-29T10:34:05.440Z,1.27
2023-01-29T10:36:45.036Z,0.71
2023-01-29T10:39:24.651Z,0.68
2023-01-29T10:42:13.461Z,0.68
2023-01-29T10:45:03.335Z,0.67
2023-01-29T10:47:47.055Z,0.66
2023-01-29T11:07:00.800Z,1.59
2023-01-29T11:09:45.415Z,1.59
2023-01-29T11:12:21.626Z,1.12
2023-01-29T11:14:55.493Z,1.00
2023-01-29T11:17:25.217Z,1.32
2023-01-29T11:19:57.726Z,1.43
2023-01-29T11:22:30.495Z,1.55
2023-01-29T11:38:22.945Z,2.35
2023-01-29T11:40:51.994Z,2.35
2023-01-29T11:43:28.228Z,1.83
2023-01-29T11:46:00.445Z,1.95
2023-01-29T11:49:02.493Z,2.06
2023-01-29T11:51:37.693Z,1.79
2023-01-29T11:54:10.316Z,1.75
2023-01-29T12:06:14.031Z,2.54
2023-01-29T12:08:42.990Z,2.54
2023-01-29T12:11:15.443Z,1.75
2023-01-29T12:13:43.729Z,1.55
2023-01-29T12:16:21.815Z,1.52
2023-01-29T12:19:09.896Z,1.85
2023-01-29T12:24:32.255Z,1.54
2023-01-29T12:41:26.591Z,2.49
2023-01-29T12:44:01.595Z,2.49
2023-01-29T12:46:34.851Z,1.76
2023-01-29T12:49:11.043Z,1.69
2023-01-29T12:51:46.368Z,1.95
2023-01-29T13:10:19.393Z,2.14
2023-01-29T13:12:56.156Z,2.14
2023-01-29T13:15:36.671Z,1.53
2023-01-29T13:18:47.035Z,1.51
2023-01-29T13:37:42.187Z,2.21
2023-01-29T13:40:24.362Z,2.21
2023-01-29T13:42:55.126Z,1.60
2023-01-29T13:45:25.988Z,1.39
2023-01-29T13:47:54.598Z,1.57
2023-01-29T13:50:39.174Z,1.41
2023-01-29T13:53:09.311Z,1.50
2023-01-29T14:17:20.943Z,1.32
2023-01-29T14:19:52.124Z,1.32
2023-01-29T14:22:23.642Z,0.79
2023-01-29T14:24:57.858Z,0.94
2023-01-29T14:27:27.021Z,1.07
2023-01-29T14:30:07.045Z,1.16
2023-01-29T14:32:40.138Z,1.19
2023-01-29T14:54:19.022Z,1.35
2023-01-29T14:56:59.715Z,1.35
2023-01-29T14:59:37.537Z,0.67
2023-01-29T15:02:22.460Z,0.85
2023-01-29T15:04:54.153Z,0.97
2023-01-29T15:07:37.357Z,0.82
2023-01-29T15:29:32.158Z,0.53
2023-01-29T15:32:02.031Z,0.53
2023-01-29T15:34:30.715Z,-0.18
2023-01-29T15:36:58.887Z,-0.31
2023-01-29T15:39:28.545Z,-0.45
2023-01-29T15:42:21.808Z,-0.28
2023-01-29T15:44:50.161Z,-0.42
2023-01-29T16:05:15.956Z,0.82
2023-01-29T16:07:46.114Z,0.82
2023-01-29T16:10:31.466Z,0.10
2023-01-29T16:13:00.293Z,0.08
2023-01-29T16:15:31.588Z,0.17
2023-01-29T16:18:02.651Z,0.23
2023-01-29T16:20:45.012Z,0.00
2023-01-29T16:39:38.286Z,0.61
2023-01-29T16:42:10.870Z,0.61
2023-01-29T16:44:55.504Z,0.09
2023-01-29T16:47:36.531Z,-0.07
2023-01-29T16:50:40.554Z,0.12
2023-01-29T16:53:23.434Z,0.17
2023-01-29T16:55:52.698Z,0.20
2023-01-29T17:14:31.756Z,0.58
2023-01-29T17:17:14.611Z,0.58
2023-01-29T17:19:42.809Z,-0.02
2023-01-29T17:22:14.990Z,-0.26
2023-01-29T17:24:43.393Z,-0.17
2023-01-29T17:27:19.716Z,-0.32
2023-01-29T17:29:48.687Z,-0.12
2023-01-29T17:32:19.161Z,-0.23
2023-01-29T17:55:42.459Z,0.52
2023-01-29T17:58:19.381Z,0.52
2023-01-29T18:00:48.492Z,0.02
2023-01-29T18:03:17.277Z,-0.02
2023-01-29T18:05:47.539Z,0.03
2023-01-29T18:08:23.575Z,0.08
2023-01-29T18:31:51.770Z,-0.04
2023-01-29T18:34:20.684Z,-0.04
2023-01-29T18:36:48.564Z,-0.69
2023-01-29T18:39:17.252Z,-0.82
2023-01-29T18:41:46.730Z,-0.49
2023-01-29T18:44:14.740Z,-0.53
2023-01-29T18:46:43.027Z,-0.47
2023-01-29T18:49:18.725Z,-0.43
2023-01-29T19:09:59.343Z,-0.88
2023-01-29T19:12:28.454Z,-1.01
2023-01-29T19:14:56.369Z,-0.95
2023-01-29T19:17:24.657Z,-0.95
2023-01-29T19:19:53.208Z,-1.02
2023-01-29T19:22:21.577Z,-1.16
2023-01-29T19:24:49.876Z,-1.16
2023-01-29T19:45:49.244Z,-0.08
2023-01-29T19:48:21.631Z,-0.08
2023-01-29T19:51:01.535Z,-0.63
2023-01-29T19:53:31.725Z,-0.65
2023-01-29T19:56:02.378Z,-0.65
2023-01-29T19:58:31.559Z,-0.59
2023-01-29T20:01:02.860Z,-0.60
2023-01-29T20:24:12.804Z,0.00
2023-01-29T20:26:41.858Z,0.00
2023-01-29T20:29:10.322Z,-0.65
2023-01-29T20:31:38.714Z,-0.46
2023-01-29T20:34:07.385Z,-0.38
2023-01-29T20:36:35.518Z,-0.47
2023-01-29T20:39:03.929Z,-0.42
2023-01-29T20:41:32.806Z,-0.36
2023-01-29T21:01:42.506Z,0.21
2023-01-29T21:04:11.422Z,0.21
2023-01-29T21:06:39.556Z,-0.34
2023-01-29T21:09:07.425Z,-0.41
2023-01-29T21:11:36.472Z,-0.25
2023-01-29T21:14:04.711Z,-0.47
2023-01-29T21:16:32.678Z,-0.31
2023-01-29T21:36:44.065Z,0.09
2023-01-29T21:39:20.976Z,0.09
2023-01-29T21:42:09.391Z,-0.34
2023-01-29T21:44:38.255Z,-0.47
2023-01-29T21:47:12.527Z,-0.51
2023-01-29T21:49:44.637Z,-0.47
2023-01-29T21:52:14.261Z,-0.44
2023-01-29T22:15:10.728Z,-0.44
2023-01-29T22:17:41.476Z,-0.53
2023-01-29T22:20:11.205Z,-0.58
2023-01-29T22:22:39.723Z,-0.56
2023-01-29T22:25:08.162Z,-0.56
2023-01-29T22:27:36.220Z,-0.54
2023-01-29T22:30:05.611Z,-0.61
2023-01-29T22:32:33.683Z,-0.51
2023-01-29T22:52:54.204Z,0.13
2023-01-29T22:55:22.988Z,0.13
2023-01-29T22:57:51.338Z,-0.61
2023-01-29T23:00:19.994Z,-0.53
2023-01-29T23:02:49.947Z,-0.43
2023-01-29T23:05:18.458Z,-0.54
2023-01-29T23:07:46.340Z,-0.51
2023-01-29T23:10:15.792Z,-0.67
2023-01-29T23:30:58.441Z,-0.28
2023-01-29T23:33:27.148Z,-0.28
2023-01-29T23:35:55.124Z,-1.02
2023-01-29T23:38:23.340Z,-1.18
2023-01-29T23:40:51.658Z,-1.23
2023-01-29T23:43:22.853Z,-1.27
2023-01-29T23:45:51.036Z,-1.36
